PDT,Max TemperatureF,Mean TemperatureF,Min TemperatureF,Max Dew PointF,MeanDew PointF,Min DewpointF,Max Humidity, Mean Humidity, Min Humidity, Max Sea Level PressureIn, Mean Sea Level PressureIn, Min Sea Level PressureIn, Max VisibilityMiles, Mean VisibilityMiles, Min VisibilityMiles, Max Wind SpeedMPH, Mean Wind SpeedMPH, Max Gust SpeedMPH,PrecipitationIn, CloudCover, Events, WindDirDegrees
2012-10-1,78,60,42,38,34,31,70,44,17,30.30,30.14,29.90,10,10,10,16,3,21,0.00,0,,223
2012-10-2,72,58,44,43,30,12,77,48,19,30.16,29.97,29.87,10,10,8,25,7,39,0.00,0,,286
2012-10-3,61,47,33,32,27,19,89,57,25,30.45,30.37,30.21,10,10,9,15,4,20,0.00,0,,60
2012-10-4,59,46,33,30,22,11,82,49,15,30.36,30.33,30.29,10,10,9,24,3,31,0.00,0,,50
2012-10-5,61,46,30,26,21,12,78,47,15,30.44,30.37,30.33,10,10,4,16,3,20,0.00,0,,54
2012-10-6,64,47,30,28,24,18,72,45,17,30.42,30.33,30.22,10,10,2,6,1,8,0.00,0,,65
2012-10-7,70,51,31,30,27,21,82,49,16,30.22,30.12,29.99,10,10,10,10,3,14,0.00,0,,31
2012-10-8,71,54,36,36,29,22,76,46,16,30.00,29.96,29.89,10,10,8,14,2,17,0.00,0,,348
2012-10-9,68,53,37,36,32,28,76,50,24,30.10,30.04,29.99,10,9,2,7,2,9,0.00,0,,47
2012-10-10,73,56,38,37,35,31,92,57,22,30.02,29.94,29.86,10,10,10,8,2,13,0.00,0,,52
2012-10-11,73,55,37,39,36,33,85,54,23,30.01,29.92,29.81,10,10,9,6,2,7,0.00,0,,31
2012-10-12,68,53,37,45,37,33,85,57,29,29.93,29.84,29.79,10,10,5,14,5,21,T,2,,190
2012-10-13,62,57,51,49,47,45,83,70,56,30.18,30.10,29.95,10,10,9,16,5,20,0.05,7,Rain,221
2012-10-14,67,60,52,51,47,44,83,64,45,30.17,30.04,29.91,10,10,10,21,8,29,0.04,6,Rain,211
2012-10-15,67,62,56,54,51,47,86,67,48,29.92,29.79,29.56,10,8,2,21,10,31,0.42,7,Rain,212
2012-10-16,62,52,42,55,37,24,62,50,38,30.08,29.73,29.44,10,10,10,31,17,44,0.00,3,,248
2012-10-17,55,44,33,33,30,26,82,59,35,30.31,30.24,30.10,10,10,10,10,4,15,0.00,1,,229
2012-10-18,64,51,37,37,32,29,85,56,27,30.30,30.14,29.86,10,10,8,9,2,10,0.00,1,,95
2012-10-19,63,56,48,47,43,33,77,60,43,29.86,29.72,29.60,10,10,9,32,13,39,0.03,6,Rain,224
2012-10-20,53,45,37,43,29,19,71,50,28,29.86,29.76,29.63,10,10,10,28,10,35,0.00,2,,242
2012-10-21,49,40,31,33,30,28,89,68,46,29.94,29.89,29.85,10,9,2,16,3,21,T,5,,209
2012-10-22,47,39,31,36,31,28,92,71,49,29.87,29.72,29.55,10,8,0,17,4,23,0.15,7,Fog-Rain,157
2012-10-23,46,39,32,34,32,29,89,74,58,30.00,29.84,29.67,10,10,10,17,3,21,0.01,5,Rain,197
2012-10-24,47,39,30,37,32,28,96,75,53,30.15,30.03,29.97,10,6,0,10,2,14,0.04,6,Fog-Rain,80
2012-10-25,44,40,36,37,35,32,89,80,70,30.46,30.30,30.13,10,10,7,9,2,13,0.04,7,Rain,175
2012-10-26,41,38,34,36,33,30,89,84,79,30.45,30.27,30.11,10,9,6,10,1,12,0.07,7,Rain,84
2012-10-27,45,42,39,39,37,35,92,84,76,30.11,30.04,29.88,10,9,5,12,3,15,0.14,8,Rain,190
2012-10-28,55,49,43,47,44,39,93,82,71,29.93,29.89,29.83,10,8,2,12,2,14,0.13,6,Rain,234
2012-10-29,65,56,47,51,46,42,93,73,52,30.03,29.88,29.81,10,8,2,28,9,33,0.35,6,Rain,235
2012-10-30,57,53,48,52,47,42,93,80,66,30.02,29.95,29.91,10,9,5,8,1,12,0.22,7,Rain,46
2012-10-31,61,55,49,50,48,46,93,77,60,29.91,29.80,29.71,10,9,2,8,2,13,0.03,3,Rain,113